Terminal Aerodrome Forecast
Issued by NWS

Home | Current Version | Previous Version | Text Only | Print | Product List | Glossary On
Versions: 1 2 3 4 5 6 7 8 9 10 11 12 13 14 15 16 17 18
000
FTUS41 KBGM 301700 RRA
TAFITH
TAF
KITH 301746Z 3018/3118 33014G24KT 3/4SM -SN OVC009
      TEMPO 3018/3022 1/2SM SN OVC007
     FM302300 32012G22KT 2SM -SHSN OVC015
     FM310500 32010KT 4SM -SHSN OVC015=

USA.gov is the U.S. government's official web portal to all federal, state and local government web resources and services.